Flight Track Log - Related Links

Times and Time Zones

All times are in EDT time to prevent confusion due to time zone crossing. See the N306UP flight status page for this flight to view local times or setup timezone preferences in your user account.


Time Position Orientation Groundspeed Altitude Reporting Facility
EDT Latitude Longitude Course Direction KTS MPH feet Rate Location/Type
Wed 12:40:42 PM 61.1910 -150.0090 176° South 152 175 400  Level FlightAware ADS-B
Wed 12:41:07 PM 61.2060 -150.0270 330° Northwest 152 175 1,700 2,618 Climbing FlightAware ADS-B
Wed 12:41:37 PM 61.2230 -150.0540 323° Northwest 162 186 2,800 1,745 Climbing FlightAware ADS-B
Wed 12:42:02 PM 61.2400 -150.0820 322° Northwest 199 229 3,300 1,650 Climbing FlightAware ADS-B
Wed 12:42:17 PM 61.2500 -150.1000 319° Northwest 207 238 3,900 2,400 Climbing FlightAware ADS-B
Wed 12:42:32 PM 61.2590 -150.1250 307° West 222 255 4,500 2,200 Climbing FlightAware ADS-B
Wed 12:42:47 PM 61.2630 -150.1570 285° West 241 277 5,000 2,250 Climbing FlightAware ADS-B
Wed 12:43:12 PM 61.2640 -150.2180 272° West 261 300 6,000 2,836 Climbing FlightAware ADS-B
Wed 12:43:42 PM 61.2650 -150.2940 272° West 264 304 7,600 2,900 Climbing FlightAware ADS-B
Wed 12:44:12 PM 61.2660 -150.3670 272° West 270 311 8,900 2,509 Climbing FlightAware ADS-B
Wed 12:44:37 PM 61.2670 -150.4360 272° West 280 322 9,900 1,938 Climbing FlightAware ADS-B
Wed 12:45:17 PM 61.2690 -150.5400 272° West 311 358 11,000 2,245 Climbing FlightAware ADS-B
Wed 12:47:00 PM 61.2756 -150.9708 276° West  Level Estimated
Wed 12:47:12 PM 61.2740 -150.9370 276° West 393 452 15,700  Level FlightAware ADS-B
Wed 12:48:22 PM 61.2770 -151.1960 271° West 382 440 20,300 3,386 Climbing FlightAware ADS-B
Wed 12:49:32 PM 61.2800 -151.4560 271° West 388 447 23,600 2,614 Climbing FlightAware ADS-B
Wed 12:50:42 PM 61.2820 -151.7170 271° West 397 457 26,400 2,100 Climbing FlightAware ADS-B
Wed 12:51:52 PM 61.2830 -151.9900 271° West 413 475 28,500 1,929 Climbing FlightAware ADS-B
Wed 12:53:02 PM 61.2850 -152.2670 271° West 414 476 30,900 1,774 Climbing FlightAware ADS-B
Wed 12:53:47 PM 61.2850 -152.4500 270° West 424 488 31,900 1,457 Climbing FlightAware ADS-B
Wed 12:54:12 PM 61.2860 -152.5490 271° West 423 487 32,600 1,543 Climbing FlightAware ADS-B
Wed 12:54:57 PM 61.2860 -152.7340 270° West 425 489 33,700 1,271 Climbing FlightAware ADS-B
Wed 12:55:37 PM 61.2860 -152.9010 270° West 428 493 34,400 1,137 Climbing FlightAware ADS-B
Wed 12:56:32 PM 61.2860 -153.1200 270° West 430 495 35,500 960 Climbing FlightAware ADS-B
Wed 12:57:17 PM 61.2850 -153.3080 269° West 433 498 36,000 353 Climbing FlightAware ADS-B
Wed 12:57:57 PM 61.2850 -153.4780 270° West 434 499 36,000  Level FlightAware ADS-B
Wed 12:58:37 PM 61.2840 -153.6460 269° West 433 498 36,000  Level FlightAware ADS-B
Wed 12:59:22 PM 61.2830 -153.8310 269° West 435 501 36,000  Level FlightAware ADS-B
Wed 01:00:32 PM 61.2800 -154.1210 269° West 435 501 36,000  Level FlightAware ADS-B
Wed 01:01:12 PM 61.2790 -154.2860 269° West 434 499 36,000  Level FlightAware ADS-B
Wed 01:01:47 PM 61.2770 -154.4380 268° West 433 498 36,000  Level FlightAware ADS-B
Wed 01:02:37 PM 61.2750 -154.6190 269° West 433 498 36,000  Level FlightAware ADS-B
Wed 01:03:12 PM 61.2730 -154.7720 269° West 433 498 36,000  Level FlightAware ADS-B
Wed 01:04:12 PM 61.2690 -155.0350 268° West 431 496 36,000  Level FlightAware ADS-B
Wed 01:04:57 PM 61.2670 -155.2000 269° West 431 496 36,000  Level FlightAware ADS-B
Wed 01:05:37 PM 61.2660 -155.3410 269° West 431 496 36,000  Level FlightAware ADS-B
Wed 01:06:17 PM 61.2650 -155.4820 269° West 431 496 36,000  Level FlightAware ADS-B
Wed 01:07:07 PM 61.2630 -155.6590 269° West 431 496 36,000  Level FlightAware ADS-B
Wed 01:07:47 PM 61.2620 -155.8000 269° West 431 496 36,000  Level FlightAware ADS-B
Wed 01:08:27 PM 61.2610 -155.9410 269° West 431 496 36,000  Level FlightAware ADS-B
Wed 01:09:07 PM 61.2600 -156.0820 269° West 431 496 36,000  Level FlightAware ADS-B
Wed 01:09:47 PM 61.2590 -156.2230 269° West 431 496 36,000  Level FlightAware ADS-B
Wed 01:10:27 PM 61.2570 -156.3640 268° West 431 496 36,000  Level FlightAware ADS-B
Wed 01:11:17 PM 61.2560 -156.5400 269° West 431 496 36,000  Level FlightAware ADS-B
Wed 01:11:57 PM 61.2550 -156.6810 269° West 431 496 36,000  Level FlightAware ADS-B
Wed 01:12:37 PM 61.2540 -156.8220 269° West 431 496 36,000  Level FlightAware ADS-B
Wed 01:13:17 PM 61.2520 -156.9630 268° West 431 496 36,000  Level FlightAware ADS-B
Wed 01:13:57 PM 61.2510 -157.1040 269° West 431 496 36,000  Level FlightAware ADS-B
Wed 01:14:50 PM 61.2500 -157.6167 269° West 430 495 36,000  Level Anchorage Center
Wed 01:15:50 PM 61.2500 -157.8667 270° West 430 495 36,000  Level Anchorage Center
Wed 01:16:50 PM 61.2333 -158.1333 263° West 430 495 36,000  Level Anchorage Center
Wed 01:17:50 PM 61.2333 -158.3833 270° West 430 495 36,000  Level Anchorage Center
Wed 01:18:50 PM 61.2333 -158.6333 270° West 430 495 36,000  Level Anchorage Center
Wed 01:19:50 PM 61.2333 -158.8833 270° West 430 495 36,000  Level Anchorage Center
Wed 01:20:50 PM 61.2333 -159.1333 270° West 430 495 36,000  Level Anchorage Center
Wed 01:21:50 PM 61.2167 -159.3833 262° West 420 483 36,000  Level Anchorage Center
Wed 01:22:50 PM 61.2167 -159.6333 270° West 420 483 36,000  Level Anchorage Center
Wed 01:23:50 PM 61.2167 -159.8667 270° West 420 483 36,000  Level Anchorage Center
Wed 01:24:51 PM 61.2167 -160.1167 270° West 430 495 36,000  Level Anchorage Center
Wed 01:25:50 PM 61.2000 -160.3667 262° West 420 483 36,000  Level Anchorage Center
Wed 01:26:51 PM 61.2000 -160.6167 270° West 420 483 36,000  Level Anchorage Center
Wed 01:27:51 PM 61.1833 -160.8500 262° West 420 483 36,000  Level Anchorage Center
Wed 01:28:50 PM 61.1833 -161.1000 270° West 410 472 36,000  Level Anchorage Center
Wed 01:29:51 PM 61.1667 -161.3500 262° West 430 495 36,000  Level Anchorage Center
Wed 01:30:51 PM 61.1667 -161.6000 270° West 420 483 36,000  Level Anchorage Center
Wed 01:31:51 PM 61.1500 -161.8333 262° West 430 495 36,000  Level Anchorage Center
Wed 01:32:51 PM 61.1500 -162.0833 270° West 410 472 36,000 250 Level Anchorage Center
Wed 01:33:51 PM 61.1333 -162.3333 262° West 420 483 36,500  Climbing Anchorage Center
Wed 01:34:51 PM 61.1333 -162.5667 270° West 420 483 36,000 -250 Descending Anchorage Center
Wed 01:35:51 PM 61.1167 -162.8167 262° West 420 483 36,000  Level Anchorage Center
Wed 01:36:51 PM 61.1000 -163.0667 262° West 420 483 36,000  Level Anchorage Center
Wed 01:37:51 PM 61.0667 -163.3000 254° West 430 495 36,000  Level Anchorage Center
Wed 01:38:51 PM 61.0333 -163.5333 254° West 430 495 36,000  Level Anchorage Center
Wed 01:39:52 PM 61.0000 -163.7833 255° West 430 495 36,000  Level Anchorage Center
Wed 01:40:52 PM 60.9667 -164.0167 254° West 430 495 36,000  Level Anchorage Center
Wed 01:41:52 PM 60.9333 -164.2667 255° West 430 495 36,000  Level Anchorage Center
Wed 01:42:52 PM 60.8833 -164.5000 246° West 430 495 36,000  Level Anchorage Center
Wed 01:43:52 PM 60.8500 -164.7333 254° West 430 495 36,000  Level Anchorage Center
Wed 01:44:52 PM 60.8167 -164.9667 254° West 430 495 36,000  Level Anchorage Center
Wed 01:45:53 PM 60.7833 -165.2000 254° West 430 495 36,000  Level Anchorage Center
Wed 01:46:42 PM 60.7500 -165.4000 251° West 430 495 36,000  Level Anchorage Center
Wed 01:47:42 PM 60.7167 -165.6333 254° West 420 483 36,000  Level Anchorage Center
Wed 01:48:42 PM 60.6833 -165.8667 254° West 420 483 36,000  Level Anchorage Center
Wed 01:49:42 PM 60.6333 -166.0833 245° Southwest 420 483 36,000  Level Anchorage Center
Wed 01:50:42 PM 60.6000 -166.3167 254° West 420 483 36,000  Level Anchorage Center
Wed 01:51:42 PM 60.5667 -166.5333 253° West 420 483 36,000  Level Anchorage Center
Wed 01:52:42 PM 60.5333 -166.7667 254° West 420 483 36,000  Level Anchorage Center
Wed 01:53:42 PM 60.4833 -167.0000 247° West 420 483 36,000  Level Anchorage Center
Wed 01:54:42 PM 60.4500 -167.2167 253° West 420 483 36,000  Level Anchorage Center
Wed 01:55:42 PM 60.4000 -167.4500 247° West 410 472 36,000  Level Anchorage Center
Wed 01:56:43 PM 60.3667 -167.6667 253° West 420 483 36,000  Level Anchorage Center
Wed 01:57:42 PM 60.3167 -167.9000 247° West 420 483 36,000  Level Anchorage Center
Wed 01:58:43 PM 60.2833 -168.1167 253° West 420 483 36,000  Level Anchorage Center
Wed 01:59:42 PM 60.2333 -168.3500 247° West 420 483 36,000  Level Anchorage Center
Wed 02:00:43 PM 60.2000 -168.5667 253° West 420 483 36,000  Level Anchorage Center
Wed 02:01:43 PM 60.1667 -168.8000 254° West 420 483 36,000  Level Anchorage Center
Wed 02:02:43 PM 60.1167 -169.0167 245° Southwest 420 483 36,000  Level Anchorage Center
Wed 02:03:43 PM 60.0667 -169.2333 245° Southwest 420 483 36,000  Level Anchorage Center
Wed 02:04:43 PM 60.0333 -169.4667 254° West 420 483 36,000  Level Anchorage Center
Wed 02:05:43 PM 59.9833 -169.6833 245° Southwest 420 483 36,000  Level Anchorage Center
Wed 02:06:43 PM 59.9500 -169.9000 253° West 420 483 36,000  Level Anchorage Center
Wed 02:07:43 PM 59.9000 -170.1333 247° West 430 495 36,000  Level Anchorage Center
Wed 02:08:43 PM 59.8667 -170.3333 252° West 430 495 36,000  Level Anchorage Center
Wed 02:09:43 PM 59.8167 -170.5333 244° Southwest 410 472 36,000  Level Anchorage Center
Wed 02:10:43 PM 59.7667 -170.7500 245° Southwest 420 483 36,000  Level Anchorage Center
Wed 02:11:44 PM 59.7333 -170.9833 254° West 420 483 36,000  Level Anchorage Center
Wed 02:12:44 PM 59.6833 -171.2000 246° West 420 483 36,000  Level Anchorage Center
Wed 02:13:43 PM 59.6333 -171.4167 246° West 420 483 36,000  Level Anchorage Center
Wed 02:14:44 PM 59.5833 -171.6333 246° West 430 495 36,000  Level Anchorage Center
Wed 02:15:44 PM 59.5500 -171.8333 252° West 420 483 36,000  Level Anchorage Center
Wed 02:16:43 PM 59.5000 -172.0667 247° West 430 495 36,000  Level Anchorage Center
Wed 02:17:44 PM 59.4500 -172.2833 246° West 430 495 36,000  Level Anchorage Center
Wed 02:18:44 PM 59.4167 -172.5000 253° West 430 495 36,000  Level Anchorage Center
Wed 02:19:44 PM 59.3667 -172.7167 246° West 430 495 36,000  Level Anchorage Center
Wed 02:20:44 PM 59.3167 -172.9333 246° West 430 495 36,000  Level Anchorage Center
Wed 02:21:44 PM 59.2667 -173.1500 246° West 430 495 36,000  Level Anchorage Center
Wed 02:22:44 PM 59.2333 -173.3667 253° West 430 495 36,000  Level Anchorage Center
Wed 02:23:44 PM 59.1833 -173.6000 247° West 440 506 36,000  Level Anchorage Center
Wed 02:24:44 PM 59.1333 -173.8167 246° West 440 506 36,000  Level Anchorage Center
Wed 02:25:44 PM 59.0833 -174.0333 246° West 440 506 36,000  Level Anchorage Center
Wed 02:26:44 PM 59.0333 -174.2500 246° West 440 506 36,000  Level Anchorage Center
Wed 02:27:44 PM 58.9833 -174.4667 246° West 430 495 36,000  Level Anchorage Center
Wed 02:28:45 PM 58.9333 -174.6833 246° West 430 495 36,000  Level Anchorage Center
Wed 02:29:44 PM 58.8833 -174.9000 246° West 430 495 36,000  Level Anchorage Center
Wed 02:30:45 PM 58.8333 -175.1333 248° West 440 506 36,000  Level Anchorage Center
Wed 02:31:45 PM 58.8000 -175.3333 252° West 430 495 36,000  Level Anchorage Center
Wed 02:32:45 PM 58.7333 -175.5500 239° Southwest 440 506 36,000  Level Anchorage Center
Wed 02:33:45 PM 58.6833 -175.7667 246° West 440 506 36,000  Level Anchorage Center
Wed 02:34:45 PM 58.6333 -175.9833 246° West 440 506 36,000  Level Anchorage Center
Wed 02:35:45 PM 58.5833 -176.2000 246° West 440 506 36,000  Level Anchorage Center
Wed 02:36:45 PM 58.5333 -176.4167 246° West 440 506 36,000  Level Anchorage Center
Wed 02:37:45 PM 58.4833 -176.6333 246° West 440 506 36,000  Level Anchorage Center
Wed 02:38:45 PM 58.4333 -176.8500 246° West 440 506 36,000  Level Anchorage Center
Wed 02:39:45 PM 58.3833 -177.0500 245° Southwest 440 506 36,000  Level Anchorage Center
Wed 02:41:24 PM 58.3167 -177.3833 244° Southwest 446 513 36,000  Level Anchorage Center
Wed 02:48:00 PM 57.9237 -178.8976 243° Southwest 446 513 36,000  Level FlightAware Transoceanic
Wed 02:49:00 PM 57.8661 -179.1112 243° Southwest 446 513 36,000  Level FlightAware Transoceanic
Wed 02:50:00 PM 57.8081 -179.3241 243° Southwest 446 513 36,000  Level FlightAware Transoceanic
Wed 02:50:59 PM 57.7833 -179.4000 243° Southwest 452 520 36,000  Level Anchorage Center
Wed 02:51:00 PM 57.7498 -179.5364 243° Southwest 446 513 36,000  Level FlightAware Transoceanic
Wed 02:52:00 PM 57.6912 -179.7479 242° Southwest 446 513 36,000  Level FlightAware Transoceanic
Wed 02:53:00 PM 57.6322 -179.9588 242° Southwest 446 513 36,000  Level FlightAware Transoceanic
Wed 02:54:00 PM 57.5728 179.8311 242° Southwest 446 513 36,000  Level FlightAware Transoceanic
Wed 02:55:00 PM 57.5131 179.6216 242° Southwest 446 513 36,000  Level FlightAware Transoceanic
Wed 02:56:00 PM 57.4530 179.4128 242° Southwest 446 513 36,000  Level FlightAware Transoceanic
Wed 02:57:00 PM 57.4226 179.3198 242° Southwest 452 520 36,000  Level FlightAware Transoceanic
Wed 02:58:00 PM 57.3613 179.1089 242° Southwest 452 520 36,000  Level FlightAware Transoceanic
Wed 02:59:00 PM 57.2995 178.8988 241° Southwest 452 520 36,000  Level FlightAware Transoceanic
Wed 03:00:00 PM 57.2375 178.6893 241° Southwest 452 520 36,000  Level FlightAware Transoceanic
Wed 03:00:32 PM 57.2167 178.6167 241° Southwest 457 526 36,000  Level Anchorage Center
Wed 03:01:00 PM 57.1751 178.4805 241° Southwest 452 520 36,000  Level FlightAware Transoceanic
Wed 03:02:00 PM 57.1123 178.2725 241° Southwest 452 520 36,000  Level FlightAware Transoceanic
Wed 03:03:00 PM 57.0492 178.0651 241° Southwest 452 520 36,000  Level FlightAware Transoceanic
Wed 03:04:00 PM 56.9857 177.8584 240° Southwest 452 520 36,000  Level FlightAware Transoceanic
Wed 03:05:00 PM 56.9220 177.6525 240° Southwest 452 520 36,000  Level FlightAware Transoceanic
Wed 03:06:00 PM 56.8401 177.3886 240° Southwest 457 526 36,000  Level FlightAware Transoceanic
Wed 03:06:39 PM 56.8333 177.3500 240° Southwest 459 528 36,000  Level Anchorage Center
Wed 03:07:00 PM 56.7762 177.1864 240° Southwest 457 526 36,000  Level FlightAware Transoceanic
Wed 03:08:00 PM 56.7120 176.9848 240° Southwest 457 526 36,000  Level FlightAware Transoceanic
Wed 03:09:00 PM 56.6474 176.7839 240° Southwest 457 526 36,000  Level FlightAware Transoceanic
Wed 03:10:00 PM 56.5825 176.5837 239° Southwest 457 526 36,000  Level FlightAware Transoceanic
Wed 03:10:08 PM 56.6167 176.6500 239° Southwest 461 531 36,000  Level Anchorage Center
Wed 03:11:00 PM 56.5173 176.3842 239° Southwest 457 526 36,000  Level FlightAware Transoceanic
Wed 03:12:00 PM 56.4518 176.1854 239° Southwest 457 526 36,000  Level FlightAware Transoceanic
Wed 03:13:00 PM 56.4316 176.1118 239° Southwest 459 528 36,000  Level FlightAware Transoceanic
Wed 03:14:00 PM 56.3634 175.9080 239° Southwest 459 528 36,000  Level FlightAware Transoceanic
Wed 03:15:00 PM 56.2950 175.7049 239° Southwest 459 528 36,000  Level FlightAware Transoceanic
Wed 03:16:00 PM 56.2126 175.4454 238° Southwest 461 531 36,000  Level FlightAware Transoceanic
Wed 03:17:00 PM 56.1441 175.2471 238° Southwest 461 531 36,000  Level FlightAware Transoceanic
Wed 03:17:13 PM 56.1167 175.2333 237° Southwest 470 541 36,000  Level Anchorage Center
Wed 03:18:00 PM 56.0754 175.0495 238° Southwest 461 531 36,000  Level FlightAware Transoceanic
Wed 03:19:00 PM 56.0062 174.8526 238° Southwest 461 531 36,000  Level FlightAware Transoceanic
Wed 03:19:12 PM 55.9833 174.8500 238° Southwest 460 529 36,000  Level Anchorage Center
Wed 03:20:00 PM 55.9368 174.6565 238° Southwest 461 531 36,000  Level FlightAware Transoceanic
Wed 03:20:13 PM 55.9167 174.6500 239° Southwest 450 518 36,000  Level Anchorage Center
Wed 03:21:00 PM 55.8671 174.4610 237° Southwest 461 531 36,000  Level FlightAware Transoceanic
Wed 03:21:13 PM 55.8500 174.4667 237° Southwest 460 529 36,000  Level Anchorage Center
Wed 03:22:00 PM 55.7971 174.2663 237° Southwest 461 531 36,000  Level FlightAware Transoceanic
Wed 03:22:13 PM 55.7833 174.2500 241° Southwest 470 541 36,000  Level Anchorage Center
Wed 03:23:13 PM 55.7167 174.1000 232° Southwest 460 529 36,000  Level Anchorage Center
Wed 03:24:13 PM 55.6500 173.8833 241° Southwest 460 529 36,000  Level Anchorage Center
Wed 03:25:13 PM 55.5833 173.7167 235° Southwest 460 529 36,000  Level Anchorage Center
Wed 03:26:13 PM 55.5000 173.5167 234° Southwest 460 529 36,000  Level Anchorage Center
Wed 03:27:13 PM 55.4500 173.3500 242° Southwest 460 529 36,000  Level Anchorage Center
Wed 03:28:13 PM 55.3667 173.1333 236° Southwest 460 529 36,000  Level Anchorage Center
Wed 03:29:14 PM 55.3000 172.9333 240° Southwest 460 529 36,000 248 Level Anchorage Center
Wed 03:30:14 PM 55.2333 172.7667 235° Southwest 460 529 36,500 504 Climbing Anchorage Center
Wed 03:31:13 PM 55.1500 172.5667 234° Southwest 460 529 37,000 250 Climbing Anchorage Center
Wed 03:32:14 PM 55.0833 172.4167 232° Southwest 460 529 37,000  Level Anchorage Center
Wed 03:33:14 PM 55.0167 172.2167 240° Southwest 460 529 37,000  Level Anchorage Center
Wed 03:34:14 PM 54.9500 172.0500 235° Southwest 460 529 37,000  Level Anchorage Center
Wed 03:35:14 PM 54.8833 171.9000 232° Southwest 450 518 37,000  Level Anchorage Center
Wed 03:36:14 PM 54.8000 171.6667 238° Southwest 460 529 37,000  Level Anchorage Center
Wed 03:37:14 PM 54.7333 171.5000 235° Southwest 460 529 37,000  Level Anchorage Center
Wed 03:38:14 PM 54.6500 171.3167 232° Southwest 460 529 37,000  Level Anchorage Center
Wed 03:39:14 PM 54.5833 171.1667 233° Southwest 450 518 37,000  Level Anchorage Center
Wed 03:40:14 PM 54.5000 170.9667 234° Southwest 450 518 37,000  Level Anchorage Center
Wed 03:41:14 PM 54.4333 170.8167 233° Southwest 450 518 37,000  Level Anchorage Center
Wed 03:42:14 PM 54.3500 170.6167 234° Southwest 470 541 37,000  Level Anchorage Center
Wed 03:43:14 PM 54.2833 170.4667 233° Southwest 450 518 37,000  Level Anchorage Center
Wed 03:44:14 PM 54.2000 170.2667 235° Southwest 470 541 37,000  Level Anchorage Center
Wed 03:45:15 PM 54.1167 170.0833 232° Southwest 460 529 37,000  Level Anchorage Center
Wed 03:46:14 PM 54.0500 169.9333 233° Southwest 450 518 37,000  Level Anchorage Center
Wed 03:47:14 PM 53.9667 169.7500 232° Southwest 480 552 37,000  Level Anchorage Center
Wed 03:48:15 PM 53.9000 169.6000 233° Southwest 450 518 37,000  Level Anchorage Center
Wed 03:49:15 PM 53.8333 169.4167 238° Southwest 450 518 37,000  Level Anchorage Center
Wed 03:50:14 PM 53.7667 169.2667 233° Southwest 460 529 37,000  Level Anchorage Center
Wed 03:51:14 PM 53.6833 169.0833 233° Southwest 460 529 37,000  Level Anchorage Center
Wed 03:53:15 PM 53.5667 168.7167 242° Southwest 440 506 37,000  Level Anchorage Center
Wed 03:54:15 PM 53.5000 168.5333 239° Southwest 440 506 37,000  Level Anchorage Center
Wed 03:56:03 PM 53.4167 168.2333 240° Southwest 444 511 37,000  Level Anchorage Center
Wed 03:58:11 PM 53.2833 167.8667 239° Southwest 442 509 37,000  Level Anchorage Center
Wed 04:02:00 PM 53.0327 167.1539 239° Southwest 444 511 37,000  Level FlightAware Transoceanic
Wed 04:03:00 PM 52.9678 166.9759 239° Southwest 444 511 37,000  Level FlightAware Transoceanic
Wed 04:04:00 PM 52.9044 166.8149 239° Southwest 442 509 37,000  Level FlightAware Transoceanic
Wed 04:05:00 PM 52.8404 166.6414 238° Southwest 442 509 37,000  Level FlightAware Transoceanic
Wed 04:06:00 PM 52.7761 166.4684 238° Southwest 442 509 37,000  Level FlightAware Transoceanic
Wed 04:07:00 PM 52.7115 166.2959 238° Southwest 442 509 37,000  Level FlightAware Transoceanic
Wed 04:07:46 PM 52.6667 166.2000 238° Southwest 437 503 37,000  Level Anchorage Center
Wed 04:08:00 PM 52.6467 166.1240 238° Southwest 442 509 37,000  Level FlightAware Transoceanic
Wed 04:09:00 PM 52.5817 165.9525 238° Southwest 442 509 37,000  Level FlightAware Transoceanic
Wed 04:10:00 PM 52.5164 165.7816 238° Southwest 442 509 37,000  Level FlightAware Transoceanic
Wed 04:11:00 PM 52.4508 165.6111 238° Southwest 442 509 37,000  Level FlightAware Transoceanic
Wed 04:12:00 PM 52.3850 165.4412 238° Southwest 442 509 37,000  Level FlightAware Transoceanic
Wed 04:13:00 PM 52.3190 165.2718 237° Southwest 442 509 37,000  Level FlightAware Transoceanic
Wed 04:14:00 PM 52.2704 165.1671 237° Southwest 437 503 37,000  Level FlightAware Transoceanic
Wed 04:15:00 PM 52.2035 164.9967 237° Southwest 437 503 37,000  Level FlightAware Transoceanic
Wed 04:16:00 PM 52.1363 164.8269 237° Southwest 437 503 37,000  Level FlightAware Transoceanic
Wed 04:17:00 PM 52.0689 164.6575 237° Southwest 437 503 37,000  Level FlightAware Transoceanic
Wed 04:17:24 PM 52.0500 164.5833 237° Southwest 442 509 37,000  Level Anchorage Center
Wed 04:18:00 PM 52.0013 164.4887 237° Southwest 437 503 37,000  Level FlightAware Transoceanic
Wed 04:19:00 PM 51.9334 164.3204 237° Southwest 437 503 37,000  Level FlightAware Transoceanic
Wed 04:20:00 PM 51.8653 164.1526 237° Southwest 437 503 37,000  Level FlightAware Transoceanic
Wed 04:21:00 PM 51.7969 163.9853 236° Southwest 437 503 37,000  Level FlightAware Transoceanic
Wed 04:22:00 PM 51.7283 163.8186 236° Southwest 437 503 37,000  Level FlightAware Transoceanic
Wed 04:23:00 PM 51.6435 163.5925 236° Southwest 442 509 37,000  Level FlightAware Transoceanic
Wed 04:23:03 PM 51.6500 163.6500 236° Southwest 442 509 37,000  Level Anchorage Center
Wed 04:24:00 PM 51.5749 163.4290 236° Southwest 442 509 37,000  Level FlightAware Transoceanic
Wed 04:25:00 PM 51.5062 163.2661 236° Southwest 442 509 37,000  Level FlightAware Transoceanic
Wed 04:26:00 PM 51.4372 163.1037 236° Southwest 442 509 37,000  Level FlightAware Transoceanic
Wed 04:26:58 PM 51.3833 163.0000 236° Southwest 444 511 37,000  Level Anchorage Center
Wed 04:27:00 PM 51.3679 162.9418 236° Southwest 442 509 37,000  Level FlightAware Transoceanic
Wed 04:28:00 PM 51.2985 162.7803 235° Southwest 442 509 37,000  Level FlightAware Transoceanic
Wed 04:29:00 PM 51.2342 162.6636 236° Southwest 442 509 37,000  Level FlightAware Transoceanic
Wed 04:30:00 PM 51.1641 162.5010 235° Southwest 442 509 37,000  Level FlightAware Transoceanic
Wed 04:31:00 PM 51.0938 162.3388 235° Southwest 442 509 37,000  Level FlightAware Transoceanic
Wed 04:32:00 PM 51.0233 162.1771 235° Southwest 442 509 37,000  Level FlightAware Transoceanic
Wed 04:33:00 PM 50.9597 162.0228 235° Southwest 444 511 37,000  Level FlightAware Transoceanic
Wed 04:34:00 PM 50.8883 161.8617 235° Southwest 444 511 37,000  Level FlightAware Transoceanic
Wed 04:35:00 PM 50.8167 161.7011 235° Southwest 444 511 37,000  Level FlightAware Transoceanic
Wed 04:36:00 PM 50.7448 161.5409 235° Southwest 444 511 37,000  Level FlightAware Transoceanic
Wed 04:36:34 PM 50.7000 161.4500 235° Southwest 447 514 37,000  Level Anchorage Center
Wed 04:37:00 PM 50.6727 161.3813 234° Southwest 444 511 37,000  Level FlightAware Transoceanic
Wed 04:38:00 PM 50.6005 161.2221 234° Southwest 444 511 37,000  Level FlightAware Transoceanic
Wed 04:39:00 PM 50.5280 161.0635 234° Southwest 444 511 37,000  Level FlightAware Transoceanic
Wed 04:40:00 PM 50.4553 160.9053 234° Southwest 444 511 37,000  Level FlightAware Transoceanic
Wed 04:41:00 PM 50.3824 160.7476 234° Southwest 444 511 37,000  Level FlightAware Transoceanic
Wed 04:42:00 PM 50.2832 160.5394 234° Southwest 447 514 37,000  Level FlightAware Transoceanic
Wed 04:43:00 PM 50.2131 160.3892 234° Southwest 447 514 37,000  Level FlightAware Transoceanic
Wed 04:43:28 PM 50.2000 160.3833 234° Southwest 452 520 37,000  Level Anchorage Center
Wed 04:44:00 PM 50.1427 160.2394 234° Southwest 447 514 37,000  Level FlightAware Transoceanic
Wed 04:45:00 PM 50.0722 160.0901 234° Southwest 447 514 37,000  Level FlightAware Transoceanic
Wed 04:46:00 PM 50.0015 159.9412 233° Southwest 447 514 37,000  Level FlightAware Transoceanic
Wed 04:46:46 PM 50.0000 159.9500 234° Southwest 445 512 37,000  Level Anchorage Center
Wed 04:47:00 PM 49.9305 159.7927 233° Southwest 447 514 37,000  Level FlightAware Transoceanic
Wed 04:48:00 PM 49.8594 159.6447 233° Southwest 447 514 37,000  Level FlightAware Transoceanic
Wed 04:49:00 PM 49.7863 159.4964 234° Southwest 452 520 37,000  Level FlightAware Transoceanic
Wed 04:50:00 PM 49.7167 159.3500 233° Southwest 452 520 37,000  Level FlightAware Transoceanic
Wed 04:51:00 PM 49.6445 159.2026 233° Southwest 452 520 37,000  Level FlightAware Transoceanic
Wed 04:52:00 PM 49.5721 159.0556 233° Southwest 452 520 37,000  Level FlightAware Transoceanic
Wed 04:53:00 PM 49.4995 158.9090 233° Southwest 445 512 37,000  Level FlightAware Transoceanic
Wed 04:54:00 PM 49.4267 158.7629 232° Southwest 445 512 37,000  Level FlightAware Transoceanic
Wed 04:55:00 PM 49.3538 158.6172 232° Southwest 445 512 37,000  Level FlightAware Transoceanic
Wed 04:56:00 PM 49.2806 158.4719 232° Southwest 445 512 37,000  Level FlightAware Transoceanic
Wed 04:57:00 PM 49.2073 158.3271 232° Southwest 445 512 37,000  Level FlightAware Transoceanic
Wed 04:58:00 PM 49.1338 158.1827 232° Southwest 445 512 37,000  Level FlightAware Transoceanic
Wed 04:59:00 PM 49.0601 158.0387 232° Southwest 445 512 37,000  Level FlightAware Transoceanic
Wed 05:00:00 PM 48.9863 157.8952 232° Southwest 445 512 37,000  Level FlightAware Transoceanic
Wed 05:01:00 PM 48.9123 157.7520 232° Southwest 445 512 37,000  Level FlightAware Transoceanic
Wed 05:02:00 PM 48.8381 157.6093 232° Southwest 445 512 37,000  Level FlightAware Transoceanic
Wed 05:03:00 PM 48.7637 157.4671 232° Southwest 445 512 37,000  Level FlightAware Transoceanic
Wed 05:04:00 PM 48.6891 157.3252 231° Southwest 445 512 37,000  Level FlightAware Transoceanic
Wed 05:05:00 PM 48.6144 157.1838 231° Southwest 445 512 37,000  Level FlightAware Transoceanic
Wed 05:06:00 PM 48.5395 157.0428 231° Southwest 445 512 37,000  Level FlightAware Transoceanic
Wed 05:07:00 PM 48.4644 156.9022 231° Southwest 445 512 37,000  Level FlightAware Transoceanic
Wed 05:08:00 PM 48.3891 156.7620 231° Southwest 445 512 37,000  Level FlightAware Transoceanic
Wed 05:09:00 PM 48.3137 156.6222 231° Southwest 445 512 37,000  Level FlightAware Transoceanic
Wed 05:10:00 PM 48.2381 156.4829 231° Southwest 445 512 37,000  Level FlightAware Transoceanic
Wed 05:11:00 PM 48.1624 156.3439 231° Southwest 445 512 37,000  Level FlightAware Transoceanic
Wed 05:12:00 PM 48.0865 156.2054 231° Southwest 445 512 37,000  Level FlightAware Transoceanic
Wed 05:13:00 PM 48.0104 156.0673 230° Southwest 445 512 37,000  Level FlightAware Transoceanic
Wed 05:14:00 PM 47.9341 155.9296 230° Southwest 445 512 37,000  Level FlightAware Transoceanic
Wed 05:15:00 PM 47.8577 155.7923 230° Southwest 445 512 37,000  Level FlightAware Transoceanic
Wed 05:16:00 PM 47.7811 155.6553 230° Southwest 445 512 37,000  Level FlightAware Transoceanic
Wed 05:17:00 PM 47.7044 155.5188 230° Southwest 445 512 37,000  Level FlightAware Transoceanic
Wed 05:18:00 PM 47.6275 155.3828 230° Southwest 445 512 37,000  Level FlightAware Transoceanic
Wed 05:19:00 PM 47.5504 155.2471 230° Southwest 445 512 37,000  Level FlightAware Transoceanic
Wed 05:20:00 PM 47.4732 155.1117 230° Southwest 445 512 37,000  Level FlightAware Transoceanic
Wed 05:21:00 PM 47.3958 154.9768 230° Southwest 445 512 37,000  Level FlightAware Transoceanic
Wed 05:22:00 PM 47.3183 154.8423 230° Southwest 445 512 37,000  Level FlightAware Transoceanic
Wed 05:23:00 PM 47.2406 154.7082 229° Southwest 445 512 37,000  Level FlightAware Transoceanic
Wed 05:24:00 PM 47.1627 154.5745 229° Southwest 445 512 37,000  Level FlightAware Transoceanic
Wed 05:25:00 PM 47.0847 154.4412 229° Southwest 445 512 37,000  Level FlightAware Transoceanic
Wed 05:26:00 PM 47.0066 154.3082 229° Southwest 445 512 37,000  Level FlightAware Transoceanic
Wed 05:27:00 PM 46.9283 154.1757 229° Southwest 445 512 37,000  Level FlightAware Transoceanic
Wed 05:28:00 PM 46.8498 154.0435 229° Southwest 445 512 37,000  Level FlightAware Transoceanic
Wed 05:29:00 PM 46.7712 153.9117 229° Southwest 445 512 37,000  Level FlightAware Transoceanic
Wed 05:30:00 PM 46.6924 153.7803 229° Southwest 445 512 37,000  Level FlightAware Transoceanic
Wed 05:31:00 PM 46.6135 153.6494 229° Southwest 445 512 37,000  Level FlightAware Transoceanic
Wed 05:32:00 PM 46.5344 153.5187 229° Southwest 445 512 37,000  Level FlightAware Transoceanic
Wed 05:33:00 PM 46.4552 153.3885 228° Southwest 445 512 37,000  Level FlightAware Transoceanic
Wed 05:34:00 PM 46.3758 153.2586 228° Southwest 445 512 37,000  Level FlightAware Transoceanic
Wed 05:35:00 PM 46.2963 153.1291 228° Southwest 445 512 37,000 26 Level FlightAware Transoceanic
Wed 05:36:00 PM 46.2183 153.0027 228° Southwest  Level FlightAware Approximate
Wed 05:37:00 PM 46.1402 152.8765 228° Southwest  Level FlightAware Approximate
Wed 05:38:00 PM 46.1414 152.8798 228° Southwest  Level FlightAware Approximate
Wed 05:39:00 PM 46.0626 152.7547 228° Southwest  Level FlightAware Approximate
Wed 05:40:00 PM 45.9837 152.6300 228° Southwest  Level FlightAware Approximate
Wed 05:41:00 PM 45.9047 152.5056 228° Southwest  Level FlightAware Approximate
Wed 05:42:00 PM 45.8255 152.3815 228° Southwest  Level FlightAware Approximate
Wed 05:43:00 PM 45.7462 152.2578 227° Southwest  Level FlightAware Approximate
Wed 05:44:00 PM 45.6668 152.1345 227° Southwest  Level FlightAware Approximate
Wed 05:45:00 PM 45.5872 152.0115 227° Southwest  Level FlightAware Approximate
Wed 05:46:00 PM 45.5075 151.8889 227° Southwest  Level FlightAware Approximate
Wed 05:47:00 PM 45.4277 151.7666 227° Southwest  Level FlightAware Approximate
Wed 05:48:00 PM 45.3477 151.6446 227° Southwest  Level FlightAware Approximate
Wed 05:49:00 PM 45.2676 151.5230 227° Southwest  Level FlightAware Approximate
Wed 05:50:00 PM 45.1874 151.4017 227° Southwest  Level FlightAware Approximate
Wed 05:51:00 PM 45.1070 151.2808 227° Southwest  Level FlightAware Approximate
Wed 05:52:00 PM 45.0266 151.1602 227° Southwest  Level FlightAware Approximate
Wed 05:53:00 PM 44.9460 151.0400 227° Southwest  Level FlightAware Approximate
Wed 05:54:00 PM 44.8652 150.9201 226° Southwest  Level FlightAware Approximate
Wed 05:55:00 PM 44.7844 150.8005 226° Southwest  Level FlightAware Approximate
Wed 05:56:00 PM 44.7034 150.6813 226° Southwest  Level FlightAware Approximate
Wed 05:57:00 PM 44.6223 150.5624 226° Southwest  Level FlightAware Approximate
Wed 05:58:00 PM 44.5411 150.4438 226° Southwest  Level FlightAware Approximate
Wed 05:59:00 PM 44.4597 150.3256 226° Southwest  Level FlightAware Approximate
Wed 06:00:00 PM 44.3783 150.2077 226° Southwest  Level FlightAware Approximate
Wed 06:01:00 PM 44.2967 150.0901 226° Southwest  Level FlightAware Approximate
Wed 06:02:00 PM 44.2150 149.9729 226° Southwest  Level FlightAware Approximate
Wed 06:03:00 PM 44.1331 149.8559 226° Southwest  Level FlightAware Approximate
Wed 06:04:00 PM 44.0512 149.7393 226° Southwest  Level FlightAware Approximate
Wed 06:05:00 PM 43.9691 149.6230 226° Southwest  Level FlightAware Approximate
Wed 06:06:00 PM 43.8869 149.5071 226° Southwest  Level FlightAware Approximate
Wed 06:07:00 PM 43.8046 149.3914 225° Southwest  Level FlightAware Approximate
Wed 06:08:00 PM 43.7222 149.2761 225° Southwest  Level FlightAware Approximate
Wed 06:09:00 PM 43.6397 149.1611 225° Southwest  Level FlightAware Approximate
Wed 06:10:00 PM 43.5570 149.0464 225° Southwest  Level FlightAware Approximate
Wed 06:11:00 PM 43.4743 148.9320 225° Southwest  Level FlightAware Approximate
Wed 06:12:00 PM 43.3914 148.8180 225° Southwest  Level FlightAware Approximate
Wed 06:12:17 PM 43.4290 148.8700 225° Southwest 398 458 38,000  Level FlightAware ADS-B
Wed 06:13:00 PM 43.3084 148.7042 225° Southwest  Level FlightAware Approximate
Wed 06:13:02 PM 43.3660 148.7820 225° Southwest 398 458 38,000  Level FlightAware ADS-B
Wed 06:13:42 PM 43.3160 148.7140 225° Southwest 398 458 38,000  Level FlightAware ADS-B
Wed 06:14:22 PM 43.2600 148.6370 225° Southwest 405 466 38,000  Level FlightAware ADS-B
Wed 06:14:57 PM 43.2160 148.5780 224° Southwest 406 467 38,000  Level FlightAware ADS-B
Wed 06:15:57 PM 43.1330 148.4640 225° Southwest 407 468 38,000  Level FlightAware ADS-B
Wed 06:16:37 PM 43.0830 148.3970 224° Southwest 408 470 38,000  Level FlightAware ADS-B
Wed 06:17:27 PM 43.0220 148.3140 225° Southwest 408 470 38,000  Level FlightAware ADS-B
Wed 06:18:07 PM 42.9590 148.2300 224° Southwest 408 470 38,000  Level FlightAware ADS-B
Wed 06:18:52 PM 42.8990 148.1490 225° Southwest 408 470 38,000  Level FlightAware ADS-B
Wed 06:19:32 PM 42.8470 148.0790 225° Southwest 409 471 38,000  Level FlightAware ADS-B
Wed 06:20:12 PM 42.7920 148.0060 224° Southwest 408 470 38,000  Level FlightAware ADS-B
Wed 06:20:57 PM 42.7290 147.9220 224° Southwest 408 470 38,000  Level FlightAware ADS-B
Wed 06:21:27 PM 42.6930 147.8740 224° Southwest 408 470 38,000  Level FlightAware ADS-B
Wed 06:22:17 PM 42.6230 147.7820 224° Southwest 408 470 38,000  Level FlightAware ADS-B
Wed 06:23:02 PM 42.5630 147.7020 224° Southwest 408 470 38,000  Level FlightAware ADS-B
Wed 06:23:47 PM 42.5000 147.6190 224° Southwest 407 468 38,000  Level FlightAware ADS-B
Wed 06:24:27 PM 42.4490 147.5510 225° Southwest 405 466 38,000  Level FlightAware ADS-B
Wed 06:25:07 PM 42.3960 147.4820 224° Southwest 405 466 38,000  Level FlightAware ADS-B
Wed 06:25:52 PM 42.3360 147.4030 224° Southwest 404 465 38,000  Level FlightAware ADS-B
Wed 06:26:57 PM 42.2460 147.2850 224° Southwest 403 464 38,000  Level FlightAware ADS-B
Wed 06:27:42 PM 42.1850 147.2070 223° Southwest 403 464 38,000  Level FlightAware ADS-B
Wed 06:28:22 PM 42.1320 147.1380 224° Southwest 403 464 38,000  Level FlightAware ADS-B
Wed 06:29:07 PM 42.0730 147.0620 224° Southwest 403 464 38,000  Level FlightAware ADS-B
Wed 06:30:02 PM 42.0020 146.9700 224° Southwest 403 464 38,000  Level FlightAware ADS-B
Wed 06:30:42 PM 41.9460 146.8970 224° Southwest 402 463 38,000  Level FlightAware ADS-B
Wed 06:31:27 PM 41.8810 146.8140 224° Southwest 401 461 38,000  Level FlightAware ADS-B
Wed 06:32:07 PM 41.8340 146.7530 224° Southwest 401 461 38,000  Level FlightAware ADS-B
Wed 06:32:47 PM 41.7760 146.6790 224° Southwest 400 460 38,000  Level FlightAware ADS-B
Wed 06:33:32 PM 41.7210 146.6090 224° Southwest 399 459 38,000  Level FlightAware ADS-B
Wed 06:34:07 PM 41.6730 146.5480 224° Southwest 398 458 38,000  Level FlightAware ADS-B
Wed 06:34:57 PM 41.6040 146.4600 224° Southwest 398 458 38,000  Level FlightAware ADS-B
Wed 06:35:37 PM 41.5510 146.3940 223° Southwest 396 456 38,000  Level FlightAware ADS-B
Wed 06:36:22 PM 41.4910 146.3170 224° Southwest 396 456 38,000  Level FlightAware ADS-B
Wed 06:37:07 PM 41.4300 146.2400 223° Southwest 388 447 38,000  Level FlightAware ADS-B
Wed 06:37:57 PM 41.3670 146.1610 223° Southwest 388 447 38,000  Level FlightAware ADS-B
Wed 06:38:57 PM 41.2880 146.0620 223° Southwest 394 453 38,000  Level FlightAware ADS-B
Wed 06:39:37 PM 41.2300 145.9900 223° Southwest 395 455 38,000  Level FlightAware ADS-B
Wed 06:40:32 PM 41.1600 145.9020 223° Southwest 396 456 38,000  Level FlightAware ADS-B
Wed 06:41:17 PM 41.0990 145.8270 223° Southwest 397 457 38,000  Level FlightAware ADS-B
Wed 06:41:52 PM 41.0500 145.7660 223° Southwest 397 457 38,000  Level FlightAware ADS-B
Wed 06:42:37 PM 40.9920 145.6940 223° Southwest 397 457 38,000  Level FlightAware ADS-B
Wed 06:43:17 PM 40.9380 145.6280 223° Southwest 397 457 38,000  Level FlightAware ADS-B
Wed 06:43:57 PM 40.8820 145.5590 223° Southwest 396 456 38,000  Level FlightAware ADS-B
Wed 06:44:47 PM 40.8190 145.4820 223° Southwest 396 456 38,000  Level FlightAware ADS-B
Wed 06:45:32 PM 40.7610 145.4110 223° Southwest 396 456 38,000  Level FlightAware ADS-B
Wed 06:46:37 PM 40.6790 145.3110 223° Southwest 394 453 38,000  Level FlightAware ADS-B
Wed 06:47:17 PM 40.6330 145.2560 222° Southwest 394 453 38,000  Level FlightAware ADS-B
Wed 06:48:02 PM 40.5600 145.1660 223° Southwest 394 453 38,000  Level FlightAware ADS-B
Wed 06:48:37 PM 40.5190 145.1170 222° Southwest 394 453 38,000  Level FlightAware ADS-B
Wed 06:49:27 PM 40.4610 145.0490 222° Southwest 394 453 38,000  Level FlightAware ADS-B
Wed 06:50:17 PM 40.3790 144.9480 223° Southwest 394 453 38,000  Level FlightAware ADS-B
Wed 06:51:02 PM 40.3180 144.8740 223° Southwest 382 440 38,000  Level FlightAware ADS-B
Wed 06:51:37 PM 40.2740 144.8220 222° Southwest 382 440 38,000  Level FlightAware ADS-B
Wed 06:52:42 PM 40.1930 144.7240 223° Southwest 379 436 38,000  Level FlightAware ADS-B
Wed 06:53:22 PM 40.1500 144.6710 223° Southwest 379 436 38,000  Level FlightAware ADS-B
Wed 06:54:02 PM 40.1060 144.6170 223° Southwest 379 436 38,000  Level FlightAware ADS-B
Wed 06:54:42 PM 40.0630 144.5640 223° Southwest 379 436 38,000  Level FlightAware ADS-B
Wed 06:55:22 PM 40.0190 144.5110 223° Southwest 379 436 38,000  Level FlightAware ADS-B
Wed 06:56:12 PM 39.9650 144.4450 223° Southwest 379 436 38,000  Level FlightAware ADS-B
Wed 06:56:52 PM 39.9210 144.3920 223° Southwest 379 436 38,000  Level FlightAware ADS-B
Wed 06:57:32 PM 39.8770 144.3390 223° Southwest 379 436 38,000  Level FlightAware ADS-B
Wed 06:58:12 PM 39.8340 144.2860 223° Southwest 379 436 38,000  Level FlightAware ADS-B
Wed 06:58:52 PM 39.7900 144.2330 223° Southwest 379 436 38,000  Level FlightAware ADS-B
Wed 06:59:42 PM 39.7360 144.1670 223° Southwest 379 436 38,000  Level FlightAware ADS-B
Wed 07:00:22 PM 39.6920 144.1140 223° Southwest 379 436 38,000  Level FlightAware ADS-B
Wed 07:01:02 PM 39.6480 144.0610 223° Southwest 379 436 38,000  Level FlightAware ADS-B
Wed 07:01:42 PM 39.6050 144.0080 224° Southwest 379 436 38,000  Level FlightAware ADS-B
Wed 07:04:00 PM 39.4019 143.7784 221° Southwest  Level FlightAware Approximate
Wed 07:05:00 PM 39.3135 143.6790 221° Southwest  Level FlightAware Approximate
Wed 07:06:00 PM 39.2249 143.5798 221° Southwest  Level FlightAware Approximate
Wed 07:07:00 PM 39.1364 143.4807 221° Southwest  Level FlightAware Approximate
Wed 07:08:00 PM 39.0480 143.3816 221° Southwest  Level FlightAware Approximate
Wed 07:09:00 PM 38.9595 143.2828 221° Southwest  Level FlightAware Approximate
Wed 07:10:00 PM 38.8631 143.2024 197° South  Level FlightAware Approximate
Wed 07:11:00 PM 38.7509 143.1591 197° South  Level FlightAware Approximate
Wed 07:12:00 PM 38.6387 143.1160 197° South  Level FlightAware Approximate
Wed 07:13:00 PM 38.5264 143.0730 197° South  Level FlightAware Approximate
Wed 07:13:12 PM 38.2660 143.2180 197° South 402 463 38,000  Level FlightAware ADS-B
Wed 07:14:12 PM 38.1590 143.1660 201° Southwest 402 463 38,000  Level FlightAware ADS-B
Wed 07:14:52 PM 38.0860 143.1300 201° Southwest 402 463 38,000  Level FlightAware ADS-B
Wed 07:15:32 PM 38.0140 143.0940 202° Southwest 411 473 38,000  Level FlightAware ADS-B
Wed 07:16:17 PM 37.9370 143.0570 201° Southwest 411 473 38,000  Level FlightAware ADS-B
Wed 07:16:57 PM 37.8630 143.0210 201° Southwest 412 474 38,000  Level FlightAware ADS-B
Wed 07:17:42 PM 37.7840 142.9820 201° Southwest 414 476 38,000  Level FlightAware ADS-B
Wed 07:18:17 PM 37.7190 142.9500 201° Southwest 416 479 38,000  Level FlightAware ADS-B
Wed 07:19:02 PM 37.6400 142.9120 201° Southwest 411 473 38,000  Level FlightAware ADS-B
Wed 07:19:47 PM 37.5580 142.8730 201° Southwest 412 474 38,000  Level FlightAware ADS-B
Wed 07:20:27 PM 37.4860 142.8380 201° Southwest 413 475 38,000  Level FlightAware ADS-B
Wed 07:21:07 PM 37.4220 142.8070 201° Southwest 413 475 38,000  Level FlightAware ADS-B
Wed 07:21:52 PM 37.3300 142.7630 201° Southwest 415 478 38,000  Level FlightAware ADS-B
Wed 07:22:22 PM 37.2790 142.7380 201° Southwest 423 487 38,000  Level FlightAware ADS-B
Wed 07:23:12 PM 37.1850 142.6930 201° Southwest 424 488 38,000  Level FlightAware ADS-B
Wed 07:23:52 PM 37.1160 142.6600 201° Southwest 423 487 38,000  Level FlightAware ADS-B
Wed 07:24:37 PM 37.0270 142.6180 201° Southwest 415 478 38,000  Level FlightAware ADS-B
Wed 07:25:22 PM 36.9450 142.5790 201° Southwest 414 476 38,000  Level FlightAware ADS-B
Wed 07:25:57 PM 36.8830 142.5480 202° Southwest 418 481 38,000  Level FlightAware ADS-B
Wed 07:26:47 PM 36.8000 142.5010 204° Southwest 414 476 38,000  Level FlightAware ADS-B
Wed 07:27:27 PM 36.7380 142.4630 206° Southwest 411 473 38,000  Level FlightAware ADS-B
Wed 07:28:02 PM 36.6710 142.4220 206° Southwest 411 473 38,000  Level FlightAware ADS-B
Wed 07:28:47 PM 36.5960 142.3760 206° Southwest 411 473 38,000 -733 Level FlightAware ADS-B
Wed 07:29:32 PM 36.5170 142.3280 206° Southwest 415 478 36,900 -1,694 Descending FlightAware ADS-B
Wed 07:30:12 PM 36.4460 142.2850 206° Southwest 431 496 35,600 -2,118 Descending FlightAware ADS-B
Wed 07:30:57 PM 36.3710 142.2410 205° Southwest 434 499 33,900 -2,541 Descending FlightAware ADS-B
Wed 07:31:37 PM 36.2930 142.1940 206° Southwest 430 495 32,000 -2,550 Descending FlightAware ADS-B
Wed 07:32:17 PM 36.2300 142.1420 214° Southwest 409 471 30,500 -2,240 Descending FlightAware ADS-B
Wed 07:32:52 PM 36.1750 142.0920 216° Southwest 401 461 29,200 -2,329 Descending FlightAware ADS-B
Wed 07:33:42 PM 36.0990 142.0250 215° Southwest 394 453 27,200 -2,118 Descending FlightAware ADS-B
Wed 07:34:17 PM 36.0580 141.9800 222° Southwest 380 437 26,200 -1,855 Descending FlightAware ADS-B
Wed 07:34:37 PM 36.0430 141.9480 240° Southwest 365 420 25,500 -2,400 Descending FlightAware ADS-B
Wed 07:35:22 PM 36.0210 141.8440 255° West 354 407 23,600 -2,333 Descending FlightAware ADS-B
Wed 07:36:07 PM 36.0070 141.7560 259° West 347 399 22,000 -1,976 Descending FlightAware ADS-B
Wed 07:36:47 PM 35.9940 141.6830 258° West 341 392 20,800 -1,875 Descending FlightAware ADS-B
Wed 07:37:27 PM 35.9820 141.6090 259° West 333 383 19,500 -1,835 Descending FlightAware ADS-B
Wed 07:38:12 PM 35.9670 141.5260 257° West 328 377 18,200 -1,553 Descending FlightAware ADS-B
Wed 07:38:52 PM 35.9530 141.4500 257° West 321 369 17,300 -1,129 Descending FlightAware ADS-B
Wed 07:39:37 PM 35.9400 141.3710 259° West 319 367 16,600 -1,020 Descending FlightAware ADS-B
Wed 07:40:32 PM 35.9230 141.2750 258° West 318 366 15,600 -1,467 Descending FlightAware ADS-B
Wed 07:41:07 PM 35.9110 141.2110 257° West 319 367 14,400 -1,906 Descending FlightAware ADS-B
Wed 07:41:57 PM 35.8970 141.1290 258° West 321 369 12,900 -1,867 Descending FlightAware ADS-B
Wed 07:42:37 PM 35.8840 141.0560 258° West 322 371 11,600 -1,875 Descending FlightAware ADS-B
Wed 07:43:17 PM 35.8810 140.9830 267° West 314 361 10,400 -1,059 Descending FlightAware ADS-B
Wed 07:44:02 PM 35.8850 140.9110 274° West 283 326 10,100 -600 Descending FlightAware ADS-B
Wed 07:44:27 PM 35.8870 140.8770 274° West 277 319 9,700 -1,500 Descending FlightAware ADS-B
Wed 07:44:42 PM 35.8890 140.8420 274° West 275 316 9,100 -1,733 Descending FlightAware ADS-B
Wed 07:45:12 PM 35.8920 140.7940 274° West 278 320 8,400 -1,418 Descending FlightAware ADS-B
Wed 07:45:37 PM 35.8950 140.7550 275° West 279 321 7,800 -1,091 Descending FlightAware ADS-B
Wed 07:46:07 PM 35.8980 140.7080 275° West 274 315 7,400 -800 Descending FlightAware ADS-B
Wed 07:46:37 PM 35.9010 140.6620 275° West 266 306 7,000 -873 Descending FlightAware ADS-B
Wed 07:47:02 PM 35.9040 140.6230 275° West 262 302 6,600 -982 Descending FlightAware ADS-B
Wed 07:47:32 PM 35.9080 140.5800 277° West 266 306 6,100 -436 Descending FlightAware ADS-B
Wed 07:47:57 PM 35.9120 140.5410 277° West 270 311 6,200 -109 Climbing FlightAware ADS-B
Wed 07:48:27 PM 35.9200 140.4950 282° West 267 307 6,000 -800 Descending FlightAware ADS-B
Wed 07:48:57 PM 35.9300 140.4530 286° West 267 307 5,400 -1,309 Descending FlightAware ADS-B
Wed 07:49:22 PM 35.9400 140.4140 288° West 267 307 4,800 -1,309 Descending FlightAware ADS-B
Wed 07:49:52 PM 35.9470 140.3760 283° West 261 300 4,200 -982 Descending FlightAware ADS-B
Wed 07:50:17 PM 35.9450 140.3360 266° West 244 281 3,900 -545 Descending FlightAware ADS-B
Wed 07:50:47 PM 35.9430 140.2970 266° West 229 264 3,700 -400 Descending FlightAware ADS-B
Wed 07:51:02 PM 35.9380 140.2840 245° Southwest 205 236 3,600 -240 Descending FlightAware ADS-B
Wed 07:51:12 PM 35.9290 140.2760 216° Southwest 191 220 3,600 -240 Level FlightAware ADS-B
Wed 07:51:27 PM 35.9150 140.2750 183° South 180 207 3,500 -933 Descending FlightAware ADS-B
Wed 07:51:57 PM 35.8910 140.2840 163° South 183 211 2,900 -1,080 Descending FlightAware ADS-B
Wed 07:52:17 PM 35.8770 140.2940 150° Southeast 181 208 2,600 -873 Descending FlightAware ADS-B
Wed 07:52:52 PM 35.8550 140.3100 149° Southeast 178 205 2,100 -831 Descending FlightAware ADS-B
Wed 07:53:22 PM 35.8370 140.3230 150° Southeast 170 196 1,700 -554 Descending FlightAware ADS-B
Wed 07:53:57 PM 35.8130 140.3400 150° Southeast 170 196 1,500 -771 Descending FlightAware ADS-B
Wed 07:54:32 PM 35.7950 140.3540 148° Southeast 135 155 800 -686 Descending FlightAware ADS-B
Wed 07:55:07 PM 35.7780 140.3660 150° Southeast 130 150 700 -171 Descending FlightAware ADS-B
Wed 07:57:00 PM 35.7647 140.3864 253° West  Level Estimated
Wed 07:58:00 PM 35.7647 140.3864 253° West  Level Estimated
Wed 07:59:00 PM 35.7647 140.3864 253° West  Level Estimated
Wed 08:00:00 PM 35.7647 140.3864 253° West  Level Estimated
Wed 08:01:00 PM 35.7647 140.3864 253° West  Level Estimated
Wed 08:02:00 PM 35.7647 140.3864 253° West  Level Estimated
Wed 08:03:00 PM 35.7647 140.3864 253° West  Level Estimated
Wed 08:04:00 PM 35.7647 140.3864 253° West  Level Estimated
Wed 08:05:00 PM 35.7647 140.3864 253° West  Level Estimated

Login

Don't have an account? Register now (free) for customized features, flight alerts, and more!